createdAt,value
2018-02-27T00:01:52.411Z,16.00
2018-02-27T00:04:18.772Z,19.67
2018-02-27T00:06:45.137Z,18.77
2018-02-27T00:09:11.489Z,19.20
2018-02-27T00:11:37.841Z,19.17
2018-02-27T00:14:04.210Z,17.00
2018-02-27T00:16:30.628Z,15.60
2018-02-27T00:18:57.170Z,17.87
2018-02-27T00:21:23.522Z,15.83
2018-02-27T00:23:49.911Z,16.77
2018-02-27T00:26:16.250Z,19.20
2018-02-27T00:28:42.616Z,14.87
2018-02-27T00:31:09.013Z,15.90
2018-02-27T00:33:35.416Z,18.70
2018-02-27T00:36:01.759Z,16.90
2018-02-27T00:38:28.166Z,18.20
2018-02-27T00:40:54.539Z,18.63
2018-02-27T00:43:20.932Z,17.67
2018-02-27T00:45:47.290Z,17.03
2018-02-27T00:48:13.650Z,19.30
2018-02-27T00:50:40.004Z,17.87
2018-02-27T00:53:06.359Z,15.80
2018-02-27T00:55:32.722Z,18.33
2018-02-27T00:57:59.062Z,16.43
2018-02-27T01:00:25.437Z,17.23
2018-02-27T01:02:51.781Z,15.93
2018-02-27T01:05:18.134Z,14.90
2018-02-27T01:07:44.478Z,18.10
2018-02-27T01:10:10.859Z,18.10
2018-02-27T01:12:37.249Z,17.37
2018-02-27T01:15:03.636Z,19.87
2018-02-27T01:17:29.981Z,17.80
2018-02-27T01:20:03.302Z,16.57
2018-02-27T01:22:29.673Z,16.87
2018-02-27T01:24:56.037Z,18.07
2018-02-27T01:27:22.394Z,13.30
2018-02-27T01:29:48.772Z,17.73
2018-02-27T01:32:15.134Z,16.97
2018-02-27T01:34:41.513Z,16.10
2018-02-27T01:37:07.883Z,17.83
2018-02-27T01:39:34.248Z,17.53
2018-02-27T01:42:00.652Z,15.90
2018-02-27T01:44:27.014Z,16.63
2018-02-27T01:46:53.411Z,17.33
2018-02-27T01:49:19.759Z,15.70
2018-02-27T01:51:46.138Z,14.60
2018-02-27T01:54:12.690Z,17.60
2018-02-27T01:56:39.049Z,16.40
2018-02-27T01:59:05.414Z,17.07
2018-02-27T02:01:31.762Z,15.13
2018-02-27T02:03:58.116Z,12.57
2018-02-27T02:06:24.481Z,16.17
2018-02-27T02:08:50.834Z,17.23
2018-02-27T02:11:17.216Z,16.60
2018-02-27T02:13:43.585Z,13.97
2018-02-27T02:16:09.978Z,16.47
2018-02-27T02:18:36.363Z,16.17
2018-02-27T02:21:02.767Z,16.30
2018-02-27T02:23:29.104Z,18.20
2018-02-27T02:25:55.474Z,16.33
2018-02-27T02:28:21.833Z,17.27
2018-02-27T02:30:48.197Z,16.73
2018-02-27T02:33:14.556Z,17.67
2018-02-27T02:35:40.913Z,18.13
2018-02-27T02:38:07.341Z,15.97
2018-02-27T02:40:33.720Z,17.37
2018-02-27T02:43:00.094Z,14.37
2018-02-27T02:45:26.457Z,15.60
2018-02-27T02:47:52.826Z,14.07
2018-02-27T02:50:19.183Z,17.23
2018-02-27T02:52:45.557Z,19.17
2018-02-27T02:55:12.011Z,20.50
2018-02-27T02:57:38.374Z,23.40
2018-02-27T03:00:04.753Z,24.33
2018-02-27T03:02:31.158Z,23.73
2018-02-27T03:04:57.513Z,21.67
2018-02-27T03:07:23.896Z,25.23
2018-02-27T03:09:50.258Z,23.53
2018-02-27T03:12:16.605Z,19.37
2018-02-27T03:14:42.963Z,19.93
2018-02-27T03:17:09.315Z,19.03
2018-02-27T03:19:35.714Z,19.00
2018-02-27T03:22:02.099Z,19.90
2018-02-27T03:24:28.502Z,23.10
2018-02-27T03:26:54.841Z,22.10
2018-02-27T03:29:21.194Z,21.93
2018-02-27T03:31:47.558Z,18.00
2018-02-27T03:34:13.926Z,22.23
2018-02-27T03:36:40.303Z,19.63
2018-02-27T03:39:06.653Z,26.90
2018-02-27T03:41:33.013Z,23.77
2018-02-27T03:43:59.373Z,20.43
2018-02-27T03:46:25.769Z,22.33
2018-02-27T03:48:52.246Z,21.07
2018-02-27T03:51:18.686Z,24.20
2018-02-27T03:53:45.086Z,16.50
2018-02-27T03:56:11.449Z,19.97
2018-02-27T03:58:37.853Z,15.10
2018-02-27T04:01:04.202Z,15.83
2018-02-27T04:03:30.589Z,16.73
2018-02-27T04:05:56.942Z,20.27
2018-02-27T04:08:23.314Z,17.53
2018-02-27T04:10:49.695Z,18.90
2018-02-27T04:13:16.066Z,16.03
2018-02-27T04:15:42.438Z,18.30
2018-02-27T04:18:08.871Z,23.37
2018-02-27T04:20:35.226Z,18.47
2018-02-27T04:23:01.610Z,19.07
2018-02-27T04:25:27.960Z,22.40
2018-02-27T04:27:54.314Z,14.90
2018-02-27T04:30:20.752Z,17.37
2018-02-27T04:32:47.114Z,17.97
2018-02-27T04:35:13.489Z,24.67
2018-02-27T04:37:39.858Z,23.60
2018-02-27T04:40:06.213Z,18.07
2018-02-27T04:42:32.605Z,22.47
2018-02-27T04:44:58.978Z,29.47
2018-02-27T04:47:25.326Z,30.20
2018-02-27T04:49:51.681Z,23.87
2018-02-27T04:52:18.059Z,19.20
2018-02-27T04:54:44.405Z,13.57
2018-02-27T04:57:10.826Z,16.43
2018-02-27T04:59:37.233Z,18.73
2018-02-27T05:02:03.596Z,19.53
2018-02-27T05:04:29.950Z,16.40
2018-02-27T05:06:56.330Z,21.30
2018-02-27T05:09:22.680Z,18.07
2018-02-27T05:11:49.029Z,19.90
2018-02-27T05:14:15.400Z,19.97
2018-02-27T05:16:41.774Z,21.90
2018-02-27T05:19:08.130Z,22.20
2018-02-27T05:21:34.494Z,22.30
2018-02-27T05:24:00.860Z,27.30
2018-02-27T05:26:27.235Z,28.27
2018-02-27T05:28:53.593Z,25.20
2018-02-27T05:31:19.954Z,20.47
2018-02-27T05:33:46.310Z,50.73
2018-02-27T05:36:12.682Z,25.77
2018-02-27T05:38:39.067Z,59.83
2018-02-27T05:41:05.452Z,61.67
2018-02-27T05:43:31.832Z,35.73
2018-02-27T05:45:58.178Z,24.47
2018-02-27T05:48:24.702Z,35.50
2018-02-27T05:50:51.177Z,31.43
2018-02-27T05:53:17.554Z,31.50
2018-02-27T05:55:43.910Z,33.30
2018-02-27T05:58:10.317Z,34.57
2018-02-27T06:00:36.660Z,23.83
2018-02-27T06:03:03.034Z,30.47
2018-02-27T06:05:29.392Z,22.37
2018-02-27T06:07:55.782Z,18.97
2018-02-27T06:10:22.302Z,26.00
2018-02-27T06:12:48.692Z,22.27
2018-02-27T06:15:15.206Z,24.43
2018-02-27T06:17:42.271Z,24.50
2018-02-27T06:20:08.638Z,30.63
2018-02-27T06:22:35.026Z,37.37
2018-02-27T06:25:01.398Z,31.70
2018-02-27T06:27:27.746Z,29.63
2018-02-27T06:29:54.109Z,30.47
2018-02-27T06:32:20.485Z,29.33
2018-02-27T06:34:46.957Z,31.37
2018-02-27T06:37:13.332Z,22.70
2018-02-27T06:39:39.707Z,29.57
2018-02-27T06:42:06.241Z,28.07
2018-02-27T06:44:32.790Z,26.47
2018-02-27T06:46:59.153Z,27.33
2018-02-27T06:49:25.519Z,22.00
2018-02-27T06:51:51.926Z,31.13
2018-02-27T06:54:18.299Z,25.87
2018-02-27T06:56:44.665Z,28.40
2018-02-27T06:59:11.066Z,25.10
2018-02-27T07:01:37.409Z,29.13
2018-02-27T07:04:03.774Z,22.93
2018-02-27T07:06:30.181Z,17.60
2018-02-27T07:08:56.552Z,18.77
2018-02-27T07:11:22.919Z,17.00
2018-02-27T07:13:49.292Z,19.90
2018-02-27T07:16:15.690Z,15.83
2018-02-27T07:18:42.057Z,15.87
2018-02-27T07:21:08.417Z,19.13
2018-02-27T07:23:34.793Z,26.67
2018-02-27T07:26:01.182Z,24.27
2018-02-27T07:28:27.538Z,35.93
2018-02-27T07:30:53.901Z,39.20
2018-02-27T07:33:20.250Z,49.33
2018-02-27T07:35:46.603Z,39.20
2018-02-27T07:38:12.970Z,30.83
2018-02-27T07:40:39.317Z,26.87
2018-02-27T07:43:05.677Z,34.23
2018-02-27T07:45:32.045Z,20.23
2018-02-27T07:47:58.407Z,23.57
2018-02-27T07:50:24.765Z,26.13
2018-02-27T07:52:51.122Z,25.03
2018-02-27T07:55:17.485Z,19.97
2018-02-27T07:57:43.847Z,18.83
2018-02-27T08:00:10.201Z,20.97
2018-02-27T08:02:36.589Z,18.23
2018-02-27T08:05:02.977Z,15.27
2018-02-27T08:07:29.389Z,16.87
2018-02-27T08:09:55.758Z,22.07
2018-02-27T08:12:22.120Z,26.90
2018-02-27T08:14:48.522Z,19.27
2018-02-27T08:17:14.879Z,16.23
2018-02-27T08:19:41.227Z,19.03
2018-02-27T08:22:07.698Z,17.97
2018-02-27T08:24:34.068Z,22.57
2018-02-27T08:27:00.431Z,19.70
2018-02-27T08:29:26.777Z,25.53
2018-02-27T08:31:53.132Z,28.73
2018-02-27T08:34:19.609Z,26.20
2018-02-27T08:36:46.109Z,25.53
2018-02-27T08:39:12.461Z,23.90
2018-02-27T08:41:38.821Z,21.27
2018-02-27T08:44:05.173Z,19.93
2018-02-27T08:46:31.529Z,25.73
2018-02-27T08:48:57.934Z,20.40
2018-02-27T08:51:25.109Z,21.03
2018-02-27T08:53:51.565Z,24.50
2018-02-27T08:56:17.914Z,26.87
2018-02-27T08:58:44.385Z,38.00
2018-02-27T09:01:10.916Z,92.17
2018-02-27T09:03:37.394Z,107.27
2018-02-27T09:06:03.832Z,114.97
2018-02-27T09:08:30.194Z,141.10
2018-02-27T09:10:56.637Z,131.37
2018-02-27T09:13:22.995Z,130.67
2018-02-27T09:15:50.293Z,101.10
2018-02-27T09:18:16.907Z,86.23
2018-02-27T09:20:45.035Z,72.20
2018-02-27T09:23:19.466Z,53.53
2018-02-27T09:25:45.855Z,42.27
2018-02-27T09:28:12.220Z,37.57
2018-02-27T09:30:38.610Z,33.87
2018-02-27T09:33:04.951Z,24.50
2018-02-27T09:35:31.300Z,26.00
2018-02-27T09:37:57.665Z,23.73
2018-02-27T09:40:25.790Z,19.30
2018-02-27T09:42:53.337Z,21.20
2018-02-27T09:45:19.855Z,19.47
2018-02-27T09:47:46.235Z,20.60
2018-02-27T09:50:15.110Z,21.33
2018-02-27T09:52:42.038Z,23.00
2018-02-27T09:55:08.506Z,27.17
2018-02-27T09:57:34.942Z,23.17
2018-02-27T10:00:01.374Z,30.93
2018-02-27T10:02:27.740Z,38.57
2018-02-27T10:04:54.157Z,54.97
2018-02-27T10:07:20.531Z,45.73
2018-02-27T10:09:46.882Z,56.87
2018-02-27T10:12:13.233Z,90.27
2018-02-27T10:14:39.650Z,101.23
2018-02-27T10:17:05.982Z,90.03
2018-02-27T10:19:32.353Z,61.13
2018-02-27T10:21:58.753Z,30.97
2018-02-27T10:24:25.110Z,31.10
2018-02-27T10:26:51.462Z,21.20
2018-02-27T10:29:17.853Z,25.23
2018-02-27T10:31:44.210Z,23.57
2018-02-27T10:34:10.570Z,31.87
2018-02-27T10:36:36.939Z,30.90
2018-02-27T10:39:03.369Z,22.10
2018-02-27T10:41:29.757Z,26.43
2018-02-27T10:43:56.111Z,17.60
2018-02-27T10:46:22.538Z,24.47
2018-02-27T10:48:48.951Z,24.17
2018-02-27T10:51:15.342Z,19.53
2018-02-27T10:53:41.850Z,20.53
2018-02-27T10:56:08.238Z,17.43
2018-02-27T10:58:34.593Z,16.60
2018-02-27T11:01:01.922Z,17.67
2018-02-27T11:03:28.269Z,18.57
2018-02-27T11:05:57.669Z,19.43
2018-02-27T11:08:27.596Z,16.13
2018-02-27T11:10:58.541Z,17.27
2018-02-27T11:13:28.272Z,15.77
2018-02-27T11:15:59.299Z,18.43
2018-02-27T11:18:27.900Z,19.87
2018-02-27T11:20:54.273Z,19.07
2018-02-27T11:23:20.744Z,21.30
2018-02-27T11:25:47.109Z,17.47
2018-02-27T11:28:13.485Z,22.37
2018-02-27T11:30:39.836Z,22.30
2018-02-27T11:33:06.227Z,16.20
2018-02-27T11:35:32.608Z,27.07
2018-02-27T11:37:58.973Z,23.07
2018-02-27T11:40:25.357Z,22.23
2018-02-27T11:42:51.760Z,22.23
2018-02-27T11:45:18.134Z,21.13
2018-02-27T11:47:44.502Z,22.17
2018-02-27T11:50:10.886Z,23.60
2018-02-27T11:52:37.454Z,22.37
2018-02-27T11:55:03.825Z,22.53
2018-02-27T11:57:30.185Z,24.67
2018-02-27T11:59:56.541Z,18.67
2018-02-27T12:02:22.928Z,29.50
2018-02-27T12:04:49.279Z,22.40
2018-02-27T12:07:15.663Z,28.53
2018-02-27T12:09:42.077Z,21.37
2018-02-27T12:12:08.454Z,19.50
2018-02-27T12:14:34.833Z,14.87
2018-02-27T12:17:01.185Z,16.77
2018-02-27T12:19:27.546Z,17.33
2018-02-27T12:21:54.140Z,14.73
2018-02-27T12:24:20.511Z,17.97
2018-02-27T12:26:46.918Z,20.63
2018-02-27T12:29:13.297Z,24.20
2018-02-27T12:31:39.749Z,23.00
2018-02-27T12:34:06.106Z,15.83
2018-02-27T12:36:32.514Z,20.10
2018-02-27T12:38:58.871Z,23.10
2018-02-27T12:41:25.286Z,26.60
2018-02-27T12:43:51.671Z,22.53
2018-02-27T12:46:18.035Z,26.57
2018-02-27T12:48:44.386Z,19.67
2018-02-27T12:51:10.746Z,19.83
2018-02-27T12:53:37.230Z,19.33
2018-02-27T12:56:03.590Z,17.03
2018-02-27T12:58:29.967Z,21.20
2018-02-27T13:00:56.328Z,24.90
2018-02-27T13:03:22.694Z,24.37
2018-02-27T13:05:49.101Z,28.57
2018-02-27T13:08:15.471Z,18.33
2018-02-27T13:10:59.625Z,22.27
2018-02-27T13:13:31.166Z,25.30
2018-02-27T13:16:14.542Z,15.30
2018-02-27T13:18:52.952Z,17.90
2018-02-27T13:21:19.389Z,21.33
2018-02-27T13:23:45.782Z,16.43
2018-02-27T13:26:14.462Z,20.00
2018-02-27T13:28:44.877Z,15.00
2018-02-27T13:31:26.989Z,23.53
2018-02-27T13:34:04.183Z,24.67
2018-02-27T13:36:31.682Z,20.80
2018-02-27T13:39:00.071Z,24.63
2018-02-27T13:41:34.363Z,39.73
2018-02-27T13:44:04.073Z,43.20
2018-02-27T13:46:40.607Z,28.77
2018-02-27T13:49:11.743Z,38.43
2018-02-27T13:51:46.105Z,31.23
2018-02-27T13:54:15.302Z,27.63
2018-02-27T13:56:51.740Z,18.73
2018-02-27T13:59:21.294Z,21.33
2018-02-27T14:02:03.829Z,22.00
2018-02-27T14:04:48.702Z,31.00
2018-02-27T14:07:15.126Z,32.03
2018-02-27T14:09:55.309Z,31.70
2018-02-27T14:12:22.821Z,24.87
2018-02-27T14:14:50.347Z,31.57
2018-02-27T14:17:17.113Z,29.50
2018-02-27T14:19:44.366Z,19.03
2018-02-27T14:22:10.758Z,21.40
2018-02-27T14:24:37.234Z,32.73
2018-02-27T14:27:06.843Z,32.80
2018-02-27T14:29:34.173Z,31.23
2018-02-27T14:32:00.533Z,30.33
2018-02-27T14:34:26.899Z,32.03
2018-02-27T14:36:53.408Z,32.23
2018-02-27T14:39:19.825Z,38.97
2018-02-27T14:41:46.177Z,30.00
2018-02-27T14:44:12.546Z,29.70
2018-02-27T14:46:38.962Z,27.33
2018-02-27T14:49:05.389Z,25.90
2018-02-27T14:51:31.784Z,22.93
2018-02-27T14:53:58.186Z,26.80
2018-02-27T14:56:24.614Z,22.60
2018-02-27T14:58:50.982Z,18.60
2018-02-27T15:01:17.334Z,21.93
2018-02-27T15:03:43.708Z,20.33
2018-02-27T15:06:10.182Z,22.73
2018-02-27T15:08:36.638Z,25.27
2018-02-27T15:11:03.006Z,23.30
2018-02-27T15:13:29.353Z,21.87
2018-02-27T15:15:55.737Z,20.20
2018-02-27T15:18:22.094Z,21.50
2018-02-27T15:20:48.445Z,22.77
2018-02-27T15:23:14.809Z,41.27
2018-02-27T15:25:41.159Z,42.37
2018-02-27T15:28:07.524Z,38.37
2018-02-27T15:30:33.897Z,47.63
2018-02-27T15:33:00.281Z,62.53
2018-02-27T15:35:26.682Z,65.60
2018-02-27T15:37:53.061Z,74.73
2018-02-27T15:40:19.425Z,66.10
2018-02-27T15:42:45.789Z,71.03
2018-02-27T15:45:12.164Z,48.60
2018-02-27T15:47:38.537Z,46.43
2018-02-27T15:50:04.882Z,41.53
2018-02-27T15:52:31.292Z,47.20
2018-02-27T15:54:57.650Z,65.07
2018-02-27T15:57:24.006Z,57.47
2018-02-27T15:59:50.553Z,45.70
2018-02-27T16:02:17.089Z,50.20
2018-02-27T16:04:43.498Z,61.97
2018-02-27T16:07:09.942Z,81.10
2018-02-27T16:09:36.293Z,91.73
2018-02-27T16:12:02.654Z,114.50
2018-02-27T16:14:29.022Z,62.93
2018-02-27T16:16:55.406Z,45.43
2018-02-27T16:19:22.125Z,55.40
2018-02-27T16:21:48.534Z,111.47
2018-02-27T16:24:14.939Z,81.57
2018-02-27T16:26:41.371Z,109.23
2018-02-27T16:29:07.757Z,57.23
2018-02-27T16:31:34.199Z,56.87
2018-02-27T16:34:00.559Z,59.47
2018-02-27T16:36:26.921Z,77.83
2018-02-27T16:38:53.353Z,87.67
2018-02-27T16:41:19.744Z,46.67
2018-02-27T16:43:46.137Z,53.10
2018-02-27T16:46:12.510Z,75.87
2018-02-27T16:48:38.897Z,87.90
2018-02-27T16:51:05.271Z,78.43
2018-02-27T16:53:31.678Z,87.40
2018-02-27T16:55:58.090Z,81.93
2018-02-27T16:58:24.499Z,64.23
2018-02-27T17:00:50.902Z,55.40
2018-02-27T17:03:17.264Z,54.70
2018-02-27T17:05:43.647Z,72.27
2018-02-27T17:08:10.039Z,69.07
2018-02-27T17:10:36.426Z,60.37
2018-02-27T17:13:02.821Z,64.17
2018-02-27T17:15:29.353Z,86.87
2018-02-27T17:17:55.710Z,81.30
2018-02-27T17:20:22.160Z,65.97
2018-02-27T17:22:48.530Z,78.93
2018-02-27T17:25:14.984Z,57.50
2018-02-27T17:27:41.358Z,60.70
2018-02-27T17:30:07.765Z,54.30
2018-02-27T17:32:34.164Z,54.83
2018-02-27T17:35:07.962Z,51.23
2018-02-27T17:37:37.844Z,48.07
2018-02-27T17:40:07.814Z,44.97
2018-02-27T17:42:35.370Z,43.97
2018-02-27T17:45:02.539Z,45.47
2018-02-27T17:47:28.899Z,41.87
2018-02-27T17:49:55.278Z,42.53
2018-02-27T17:52:21.730Z,40.17
2018-02-27T17:54:48.076Z,36.40
2018-02-27T17:57:14.521Z,45.73
2018-02-27T17:59:40.922Z,47.43
2018-02-27T18:02:07.275Z,49.23
2018-02-27T18:04:33.650Z,51.63
2018-02-27T18:07:00.042Z,47.00
2018-02-27T18:09:26.418Z,74.40
2018-02-27T18:11:52.775Z,85.57
2018-02-27T18:14:19.139Z,110.97
2018-02-27T18:16:45.541Z,110.63
2018-02-27T18:19:11.945Z,113.40
2018-02-27T18:21:38.335Z,90.17
2018-02-27T18:24:04.695Z,90.03
2018-02-27T18:26:31.057Z,104.17
2018-02-27T18:28:57.447Z,99.00
2018-02-27T18:31:23.862Z,108.47
2018-02-27T18:33:50.312Z,88.87
2018-02-27T18:36:16.721Z,82.53
2018-02-27T18:38:43.115Z,73.87
2018-02-27T18:41:09.489Z,71.43
2018-02-27T18:43:35.843Z,78.43
2018-02-27T18:46:05.255Z,64.57
2018-02-27T18:48:35.702Z,48.33
2018-02-27T18:51:17.277Z,45.77
2018-02-27T18:54:00.746Z,49.20
2018-02-27T18:56:34.519Z,45.37
2018-02-27T18:59:23.253Z,81.80
2018-02-27T19:02:15.038Z,74.53
2018-02-27T19:04:41.470Z,58.93
2018-02-27T19:07:09.614Z,57.13
2018-02-27T19:09:40.258Z,56.13
2018-02-27T19:12:09.890Z,49.13
2018-02-27T19:14:37.351Z,51.87
2018-02-27T19:17:08.437Z,49.00
2018-02-27T19:19:36.826Z,48.10
2018-02-27T19:22:05.349Z,51.23
2018-02-27T19:24:33.597Z,61.17
2018-02-27T19:27:01.811Z,62.03
2018-02-27T19:29:29.102Z,75.13
2018-02-27T19:31:55.581Z,62.80
2018-02-27T19:34:25.766Z,71.13
2018-02-27T19:36:52.183Z,63.20
2018-02-27T19:39:18.632Z,37.40
2018-02-27T19:41:45.863Z,35.57
2018-02-27T19:44:14.142Z,33.97
2018-02-27T19:46:40.507Z,40.93
2018-02-27T19:49:06.863Z,47.97
2018-02-27T19:51:33.401Z,55.40
2018-02-27T19:53:59.869Z,77.13
2018-02-27T19:56:26.245Z,56.77
2018-02-27T19:58:52.618Z,49.83
2018-02-27T20:01:18.983Z,46.10
2018-02-27T20:03:45.350Z,60.27
2018-02-27T20:06:11.780Z,78.23
2018-02-27T20:08:38.184Z,73.60
2018-02-27T20:11:04.622Z,64.37
2018-02-27T20:13:31.015Z,47.13
2018-02-27T20:15:57.373Z,46.00
2018-02-27T20:18:24.723Z,40.10
2018-02-27T20:20:51.163Z,43.10
2018-02-27T20:36:34.237Z,43.43
2018-02-27T20:39:06.715Z,45.57
2018-02-27T20:41:33.083Z,42.00
2018-02-27T20:43:59.530Z,41.17
2018-02-27T20:46:25.892Z,41.73
2018-02-27T20:48:52.278Z,36.43
2018-02-27T20:51:18.808Z,34.00
2018-02-27T20:53:45.215Z,35.30
2018-02-27T20:56:11.604Z,35.50
2018-02-27T20:58:37.976Z,33.43
2018-02-27T21:01:04.433Z,34.40
2018-02-27T21:03:30.888Z,35.80
2018-02-27T21:05:57.235Z,34.70
2018-02-27T21:08:23.649Z,38.63
2018-02-27T21:10:50.017Z,37.50
2018-02-27T21:13:18.407Z,34.97
2018-02-27T21:15:44.826Z,44.20
2018-02-27T21:18:11.212Z,41.20
2018-02-27T21:20:37.570Z,44.00
2018-02-27T21:23:03.984Z,44.33
2018-02-27T21:25:30.469Z,52.43
2018-02-27T21:27:57.168Z,54.87
2018-02-27T21:30:23.591Z,52.43
2018-02-27T21:32:49.945Z,53.60
2018-02-27T21:35:16.340Z,61.00
2018-02-27T21:37:42.772Z,55.60
2018-02-27T21:40:09.377Z,58.40
2018-02-27T21:42:35.753Z,43.60
2018-02-27T21:45:15.363Z,41.23
2018-02-27T21:47:41.841Z,36.67
2018-02-27T21:50:08.358Z,44.00
2018-02-27T21:52:34.774Z,44.23
2018-02-27T21:55:01.141Z,38.17
2018-02-27T21:57:27.502Z,33.90
2018-02-27T21:59:53.940Z,32.83
2018-02-27T22:02:20.337Z,35.80
2018-02-27T22:04:46.705Z,34.27
2018-02-27T22:07:13.086Z,39.27
2018-02-27T22:09:39.444Z,43.87
2018-02-27T22:12:05.802Z,38.43
2018-02-27T22:14:32.173Z,33.37
2018-02-27T22:16:58.547Z,34.60
2018-02-27T22:19:24.917Z,35.43
2018-02-27T22:21:51.318Z,34.57
2018-02-27T22:24:17.658Z,38.17
2018-02-27T22:26:44.135Z,32.23
2018-02-27T22:29:10.522Z,35.23
2018-02-27T22:31:36.967Z,35.87
2018-02-27T22:34:03.394Z,34.80
2018-02-27T22:36:29.801Z,41.97
2018-02-27T22:38:56.172Z,38.43
2018-02-27T22:41:22.670Z,34.97
2018-02-27T22:43:49.016Z,29.83
2018-02-27T22:46:15.412Z,30.13
2018-02-27T22:48:41.798Z,31.77
2018-02-27T22:51:08.159Z,37.60
2018-02-27T22:53:34.521Z,41.10
2018-02-27T22:56:00.882Z,38.03
2018-02-27T22:58:27.240Z,43.53
2018-02-27T23:00:53.617Z,42.23
2018-02-27T23:03:19.994Z,36.60
2018-02-27T23:05:46.376Z,41.17
2018-02-27T23:08:12.720Z,43.73
2018-02-27T23:10:39.120Z,46.27
2018-02-27T23:13:05.464Z,43.47
2018-02-27T23:15:31.824Z,48.50
2018-02-27T23:20:32.887Z,47.03
2018-02-27T23:23:00.654Z,58.37
2018-02-27T23:38:50.178Z,45.27
2018-02-27T23:41:18.316Z,43.00
2018-02-27T23:43:46.968Z,39.97
2018-02-27T23:46:17.238Z,38.47
2018-02-27T23:48:45.212Z,39.00
2018-02-27T23:51:13.209Z,37.07
2018-02-27T23:53:40.969Z,38.50
2018-02-27T23:56:08.012Z,37.27
2018-02-27T23:58:34.844Z,37.97
